Fairview Drive, Pennsylvania
Current Conditions -  °F | °C
As of 12:53 PM on Friday 28 Nov 2014 (Local Time) from KTHV Reporting Station
Broken Clouds Broken Clouds  
Wind Chill: 25°   Ceiling: 5000
Heat Index: 33°   Visibility: 10mi
Dew Point: 15°   Wind: 10mph
Humidity: 48%   Direction: 300°WNW
Pressure: 30.24"   Gusts: NA
Location:  39.7863°N, 76.988°W
Report Text: KTHV 281753Z AUTO 30009KT 10SM BKN050 01/M09 A3024 RMK AO2 SLP249 T00061094 10017 21017 58009
Loading
Personal Weather Stations






























Interactive Weather Map New forecast layout! Learn more

10-Day Weather Forecast

Advertisements
Track Severe Weather on mobile